Aérodrome :
LOGIN :

S'inscrire | Disclaimer

   EN    FR    IT 

 










Légende :    VFR   VFR Marginal   IFR   IFR Intensif   IFR Très Intensif
Visi : 
Plafond : 
>= 8 km
>= 3000ft
5 à 8 km
1000 à 3000 ft
1500m à 5 km
500 à 1000 ft
800 à 1500m
200 à 500 ft
< 800m
< 200 ft
Symboles :   Orages  Brouillard  Fortes neiges  Fortes précipitations  Vent > 20 kt
SIGMETs :   Divers  Orages  Givrage  Turbulence  Onde Orograph.  Cendres Volcan.







- Altitude de l'aérodrome : 333 ft


LIPL - Ghedi Brescia (Mil)

DERNIER METAR :
  • 170955Z 27003KT 9999 FEW040 25/16 Q1015 RMK SCT VIS MIN 9999 WIND THR31 26007KT WIND THR13 26006KT BLU

METARs EXPIRÉS :
  • 170855Z 28005KT 6000 FEW035 24/17 Q1015 RMK SCT SCT090 VIS MIN 6000 WIND THR31 27007KT WIND THR13 27005KT WHT
  • 170755Z 22002KT 3600 BR FEW045 22/18 Q1015 RMK BKN SCT090 VIS MIN 3600 WIND THR31 23005KT WIND THR13 27003KT YLO

TAF AMD TAF LIPL
Valide du 17 à 09h jusqu'au 17 à 18h UTC


170800Z 1709/1718 VRB03KT 6000 FEW050
Pas de NOTAMs connus pour ce terrain.



MET'MAP, la Météo Aéronautique d'un coup d'oeil ! - Copyright ORBIFLY Décembre 2007 - Disclaimer

ORBIFLY MET'MAP TEAM :

Programmation & Développement : Alexandra Zaïnal
Conception & Développement : Baudouin d'Aumeries
Co-Programmation & Développement : Marc-Olivier Méhu
Soutien technique & logistique : Manuel Goepfert

Contact : metmap@orbifly.com




SOURCES & CREDITS :

   NOAA